Time;durP1;ratioP1;P1;durP2;ratioP2;P2;SDS_P1;SDS_P2;PMS_P1;PMS_P2;Temp;Humidity;BMP_temperature;BMP_pressure;BME280_temperature;BME280_humidity;BME280_pressure;Samples;Min_cycle;Max_cycle;Signal;HPM_P1;HPM_P2
2023/04/19 00:01:08;;;;;;;;;17.33;13.00;;;;;20.65;36.70;101498.75;5015577;28;53670;-40
2023/04/19 00:03:36;;;;;;;;;12.00;12.00;;;;;20.63;36.45;101495.31;5015625;28;47013;-38
2023/04/19 00:06:01;;;;;;;;;12.50;12.50;;;;;20.58;36.65;101470.94;5014552;28;45941;-38
2023/04/19 00:08:27;;;;;;;;;15.50;11.75;;;;;20.61;36.55;101485.78;5016042;28;45535;-38
2023/04/19 00:10:52;;;;;;;;;13.75;12.00;;;;;20.58;36.26;101489.38;5015851;28;51792;-38
2023/04/19 00:13:17;;;;;;;;;10.75;9.00;;;;;20.58;36.49;101492.00;5018117;28;45427;-38
2023/04/19 00:15:43;;;;;;;;;13.00;12.00;;;;;20.57;36.33;101495.56;5017958;28;46397;-37
2023/04/19 00:18:08;;;;;;;;;11.75;11.75;;;;;20.55;36.20;101497.44;5019401;28;45241;-38
2023/04/19 00:20:34;;;;;;;;;11.00;11.00;;;;;20.55;36.40;101498.28;5018420;28;45490;-38
2023/04/19 00:22:59;;;;;;;;;14.25;10.75;;;;;20.54;36.19;101493.09;5018479;28;60608;-37
2023/04/19 00:25:24;;;;;;;;;12.50;11.00;;;;;20.52;36.78;101497.56;5019381;28;45179;-37
2023/04/19 00:27:50;;;;;;;;;15.00;11.75;;;;;20.53;36.28;101494.84;5019276;28;45758;-37
2023/04/19 00:30:15;;;;;;;;;13.25;11.50;;;;;20.52;36.25;101502.84;5019337;28;45495;-37
2023/04/19 00:32:40;;;;;;;;;10.25;9.25;;;;;20.51;36.27;101495.88;5019042;28;45474;-40
2023/04/19 00:35:06;;;;;;;;;12.25;11.00;;;;;20.51;36.66;101487.97;5018970;28;45170;-38
2023/04/19 00:37:31;;;;;;;;;11.75;11.50;;;;;20.52;36.89;101492.31;5019060;28;45307;-37
2023/04/19 00:39:56;;;;;;;;;15.00;10.67;;;;;20.50;36.21;101496.78;5018932;28;53795;-37
2023/04/19 00:42:22;;;;;;;;;9.00;8.50;;;;;20.50;36.50;101484.47;5034082;28;48518;-37
2023/04/19 00:44:47;;;;;;;;;11.00;11.00;;;;;20.49;36.66;101489.81;5018276;28;58181;-38
2023/04/19 00:47:13;;;;;;;;;15.50;10.00;;;;;20.50;36.50;101491.50;5018985;28;45369;-38
2023/04/19 00:49:39;;;;;;;;;10.00;10.00;;;;;20.49;36.19;101492.44;5019088;28;45765;-37
2023/04/19 00:52:05;;;;;;;;;11.50;10.00;;;;;20.49;36.52;101488.03;5018923;28;45951;-37
2023/04/19 00:54:32;;;;;;;;;10.00;8.00;;;;;20.48;36.75;101496.00;5018792;28;45381;-37
2023/04/19 00:56:57;;;;;;;;;10.00;10.00;;;;;20.46;36.80;101490.81;5019128;28;45185;-38
2023/04/19 00:59:24;;;;;;;;;14.75;10.00;;;;;20.46;36.33;101492.56;5018885;28;45376;-38
2023/04/19 01:01:49;;;;;;;;;13.00;10.00;;;;;20.44;36.58;101490.00;5018635;28;46604;-38
2023/04/19 01:04:15;;;;;;;;;10.25;10.25;;;;;20.44;36.41;101486.53;5018486;28;45258;-38
2023/04/19 01:06:41;;;;;;;;;13.25;11.00;;;;;20.42;36.69;101488.38;5022429;28;45481;-37
2023/04/19 01:09:06;;;;;;;;;9.50;8.75;;;;;20.43;36.23;101492.72;5037401;28;45594;-37
2023/04/19 01:11:32;;;;;;;;;1.50;0.75;;;;;20.42;36.47;101480.47;5038509;28;46432;-38
2023/04/19 01:13:58;;;;;;;;;13.25;9.00;;;;;20.41;36.21;101484.88;5038573;28;45352;-37
2023/04/19 01:16:25;;;;;;;;;13.50;10.25;;;;;20.42;36.31;101481.31;5038414;28;45312;-37
2023/04/19 01:18:50;;;;;;;;;11.50;9.00;;;;;20.41;36.31;101476.97;5038541;28;45270;-38
2023/04/19 01:21:16;;;;;;;;;14.25;10.00;;;;;20.41;36.48;101478.75;5038018;28;45576;-39
2023/04/19 01:23:41;;;;;;;;;9.75;8.75;;;;;20.39;36.22;101479.69;5036852;28;45881;-38
2023/04/19 01:26:07;;;;;;;;;9.75;8.25;;;;;20.40;36.49;101480.53;5038425;28;45820;-38
2023/04/19 01:28:32;;;;;;;;;10.50;9.25;;;;;20.38;36.22;101475.34;5038229;28;45617;-37
2023/04/19 01:30:57;;;;;;;;;8.00;8.00;;;;;20.38;36.73;101479.75;5038192;28;45319;-37
2023/04/19 01:33:23;;;;;;;;;9.75;9.50;;;;;20.37;36.26;101483.31;5038041;28;45235;-37
2023/04/19 01:35:48;;;;;;;;;10.50;8.50;;;;;20.36;36.60;101476.34;5038026;28;45209;-37
2023/04/19 01:38:14;;;;;;;;;11.00;8.75;;;;;20.37;36.63;101478.06;5038146;28;45574;-38
2023/04/19 01:40:40;;;;;;;;;10.50;10.50;;;;;20.36;36.69;101482.44;5037929;28;47440;-38
2023/04/19 01:43:06;;;;;;;;;8.00;8.00;;;;;20.36;36.67;101474.53;5037800;28;45189;-38
2023/04/19 01:45:32;;;;;;;;;9.75;9.00;;;;;20.35;36.76;101472.84;5038303;28;45260;-38
2023/04/19 01:48:00;;;;;;;;;8.25;8.25;;;;;20.36;36.58;101471.91;5038636;28;45605;-38
2023/04/19 01:50:25;;;;;;;;;12.75;11.75;;;;;20.35;36.73;101472.00;5037792;28;46120;-40
2023/04/19 01:52:51;;;;;;;;;8.00;8.00;;;;;20.33;36.63;101474.72;5037784;28;45368;-40
2023/04/19 01:55:16;;;;;;;;;12.25;10.00;;;;;20.33;36.77;101473.84;5037894;28;45287;-37
2023/04/19 01:57:41;;;;;;;;;11.50;10.00;;;;;20.32;36.73;101475.63;5037771;28;45511;-38
2023/04/19 02:00:08;;;;;;;;;11.00;9.00;;;;;20.32;36.17;101475.63;5037011;28;62556;-37
2023/04/19 02:02:36;;;;;;;;;9.00;9.00;;;;;20.32;36.22;101473.00;5037824;28;45247;-38
2023/04/19 02:05:01;;;;;;;;;11.25;9.00;;;;;20.33;36.18;101474.72;5037955;28;45362;-38
2023/04/19 02:07:26;;;;;;;;;10.50;9.25;;;;;20.31;36.68;101471.28;5037811;28;45204;-38
2023/04/19 02:09:51;;;;;;;;;11.00;8.33;;;;;20.28;36.32;101463.50;5036757;28;63764;-38
2023/04/19 02:12:17;;;;;;;;;12.25;10.00;;;;;20.32;36.19;101466.84;5037254;28;45382;-38
2023/04/19 02:14:42;;;;;;;;;15.75;9.50;;;;;20.30;36.34;101466.06;5037502;28;45359;-38
2023/04/19 02:17:07;;;;;;;;;10.00;9.67;;;;;20.30;36.29;101472.19;5037477;28;45402;-37
2023/04/19 02:19:33;;;;;;;;;10.50;9.75;;;;;20.28;36.23;101463.50;5037469;28;46272;-39
2023/04/19 02:21:58;;;;;;;;;10.00;10.00;;;;;20.28;36.48;101462.66;5037295;28;45493;-40
2023/04/19 02:24:24;;;;;;;;;9.00;9.00;;;;;20.26;36.68;101465.34;5037513;28;45405;-37
2023/04/19 02:26:49;;;;;;;;;10.00;9.25;;;;;20.26;36.55;101469.78;5037647;28;45377;-38
2023/04/19 02:29:15;;;;;;;;;9.75;8.50;;;;;20.24;36.16;101468.06;5037036;28;46067;-38
2023/04/19 02:31:41;;;;;;;;;11.25;8.50;;;;;20.23;36.56;101462.84;5037045;28;45323;-38
2023/04/19 02:34:06;;;;;;;;;10.00;8.50;;;;;20.24;36.53;101472.47;5037206;28;45467;-39
2023/04/19 02:36:32;;;;;;;;;11.00;9.00;;;;;20.22;36.37;101463.78;5037384;28;45521;-37
2023/04/19 02:38:58;;;;;;;;;13.00;12.00;;;;;20.20;36.30;101461.22;5036887;28;47091;-37
2023/04/19 02:41:23;;;;;;;;;12.25;11.25;;;;;20.20;36.27;101461.22;5036986;28;45245;-38
2023/04/19 02:43:49;;;;;;;;;9.75;9.75;;;;;20.20;36.26;101460.38;5036992;28;45403;-38
2023/04/19 02:46:14;;;;;;;;;10.25;8.75;;;;;20.18;36.09;101451.69;5037116;28;45568;-38
2023/04/19 02:48:39;;;;;;;;;10.75;8.00;;;;;20.19;36.11;101458.66;5036834;28;47262;-38
2023/04/19 02:51:05;;;;;;;;;9.00;9.00;;;;;20.19;36.14;101456.03;5036582;28;61655;-38
2023/04/19 02:53:30;;;;;;;;;9.33;9.33;;;;;20.18;36.31;101463.06;5036787;28;45304;-37
2023/04/19 02:55:55;;;;;;;;;10.00;8.00;;;;;20.17;36.17;101466.63;5036871;28;45332;-38
2023/04/19 02:58:21;;;;;;;;;9.00;9.00;;;;;20.17;36.45;101461.38;5036392;28;46850;-39
2023/04/19 03:00:46;;;;;;;;;11.25;7.50;;;;;20.17;36.27;101464.00;5036611;28;45227;-39
2023/04/19 03:03:11;;;;;;;;;10.67;9.00;;;;;20.17;36.83;101465.75;5036153;28;60407;-38
2023/04/19 03:05:36;;;;;;;;;9.50;9.50;;;;;20.16;36.23;101464.91;5037243;28;45235;-39
2023/04/19 03:08:02;;;;;;;;;7.00;7.00;;;;;20.16;36.19;101464.06;5036006;28;62192;-38
2023/04/19 03:10:27;;;;;;;;;8.25;8.25;;;;;20.14;36.33;101463.25;5036601;28;45460;-38
2023/04/19 03:12:53;;;;;;;;;10.00;10.00;;;;;20.15;36.23;101462.34;5036528;28;45592;-37
2023/04/19 03:15:19;;;;;;;;;8.00;7.50;;;;;20.12;36.58;101462.50;5036393;28;50047;-37
2023/04/19 03:17:45;;;;;;;;;11.00;9.50;;;;;20.14;36.33;101461.50;5036293;28;45422;-38
2023/04/19 03:20:10;;;;;;;;;8.25;7.00;;;;;20.13;36.30;101464.19;5036279;28;45375;-38
2023/04/19 03:22:36;;;;;;;;;9.50;9.00;;;;;20.13;36.30;101465.03;5035337;28;45432;-38
2023/04/19 03:25:02;;;;;;;;;10.25;9.25;;;;;20.12;36.75;101468.59;5036615;28;45645;-38
2023/04/19 03:27:28;;;;;;;;;13.00;10.25;;;;;20.11;36.71;101460.78;5036169;28;46359;-38
2023/04/19 03:29:54;;;;;;;;;8.25;7.25;;;;;20.10;36.36;101457.28;5036229;28;45333;-38
2023/04/19 03:32:20;;;;;;;;;7.75;7.75;;;;;20.10;36.62;101454.66;5036468;28;45344;-37
2023/04/19 03:34:45;;;;;;;;;11.33;8.00;;;;;20.11;36.70;101455.50;5035712;28;58825;-38
2023/04/19 03:37:10;;;;;;;;;11.67;9.67;;;;;20.11;36.17;101456.34;5033919;28;69721;-37
2023/04/19 03:39:36;;;;;;;;;9.25;9.25;;;;;20.10;36.21;101459.91;5035021;28;45395;-37
2023/04/19 03:42:01;;;;;;;;;10.00;7.67;;;;;20.07;36.38;101455.63;5035889;28;49263;-39
2023/04/19 03:44:27;;;;;;;;;12.75;8.50;;;;;20.09;36.29;101460.81;5036372;28;45454;-37
2023/04/19 03:46:52;;;;;;;;;8.75;8.75;;;;;20.10;36.26;101464.34;5033811;28;53649;-38
2023/04/19 03:49:17;;;;;;;;;9.00;9.00;;;;;20.08;36.03;101457.34;5035963;28;45391;-37
2023/04/19 03:51:43;;;;;;;;;13.00;10.00;;;;;20.08;36.82;101452.09;5035438;28;60145;-37
2023/04/19 03:54:08;;;;;;;;;11.00;9.00;;;;;20.10;36.35;101461.69;5036496;28;45318;-40
2023/04/19 03:56:34;;;;;;;;;9.50;8.50;;;;;20.08;36.29;101453.84;5035800;28;45621;-40
2023/04/19 03:58:59;;;;;;;;;10.00;9.00;;;;;20.07;36.71;101450.38;5035912;28;45322;-38
2023/04/19 04:01:25;;;;;;;;;9.75;8.50;;;;;20.07;36.10;101453.00;5036112;28;45339;-38
2023/04/19 04:03:51;;;;;;;;;10.50;8.50;;;;;20.07;36.58;101450.38;5036164;28;45451;-38
2023/04/19 04:06:16;;;;;;;;;10.00;8.75;;;;;20.07;36.24;101450.38;5035251;28;67514;-38
2023/04/19 04:08:41;;;;;;;;;10.00;8.50;;;;;20.06;36.27;101451.28;5036255;28;45340;-38
2023/04/19 04:11:07;;;;;;;;;9.00;9.00;;;;;20.07;36.49;101455.63;5036167;28;45722;-40
2023/04/19 04:13:32;;;;;;;;;13.75;10.50;;;;;20.07;36.56;101455.63;5036089;28;45550;-38
2023/04/19 04:15:57;;;;;;;;;8.00;8.00;;;;;20.07;36.72;101450.38;5035968;28;45682;-37
2023/04/19 04:18:22;;;;;;;;;9.00;9.00;;;;;20.06;36.20;101453.94;5035284;28;57211;-39
2023/04/19 04:20:48;;;;;;;;;12.50;10.00;;;;;20.07;36.60;101452.13;5035824;28;45197;-37
2023/04/19 04:23:13;;;;;;;;;8.00;7.50;;;;;20.06;36.62;101453.94;5035778;28;45285;-37
2023/04/19 04:25:39;;;;;;;;;9.00;8.75;;;;;20.06;36.83;101453.94;5035306;28;64315;-38
2023/04/19 04:28:05;;;;;;;;;10.50;10.00;;;;;20.05;36.32;101457.47;5035800;28;45438;-42
2023/04/19 04:30:32;;;;;;;;;7.50;7.00;;;;;20.06;36.25;101453.09;5034384;28;45293;-42
2023/04/19 04:32:58;;;;;;;;;10.75;9.50;;;;;20.05;36.47;101457.47;5035780;28;45485;-39
2023/04/19 04:35:23;;;;;;;;;12.25;8.75;;;;;20.06;36.65;101450.47;5035530;28;45319;-42
2023/04/19 04:37:48;;;;;;;;;12.50;9.00;;;;;20.02;36.19;101447.06;5035441;28;45378;-40
2023/04/19 04:40:14;;;;;;;;;9.25;9.25;;;;;20.03;36.54;101451.41;5035459;28;45333;-37
2023/04/19 04:42:40;;;;;;;;;8.75;8.00;;;;;20.03;36.46;101453.22;5035890;28;45414;-40
2023/04/19 04:45:06;;;;;;;;;10.50;8.50;;;;;20.03;36.74;101456.69;5035236;28;45434;-38
2023/04/19 04:47:32;;;;;;;;;8.00;8.00;;;;;20.02;36.42;101460.22;5035166;28;45417;-50
2023/04/19 04:49:58;;;;;;;;;11.50;9.00;;;;;20.02;36.74;101465.50;5035381;28;45319;-39
2023/04/19 04:52:24;;;;;;;;;10.50;8.75;;;;;20.01;36.46;101460.31;5035623;28;45265;-38
2023/04/19 04:54:49;;;;;;;;;9.00;8.25;;;;;20.01;36.36;101465.56;5035234;28;47298;-38
2023/04/19 04:57:14;;;;;;;;;9.75;8.75;;;;;19.97;36.42;101462.22;5035185;28;45217;-37
2023/04/19 04:59:40;;;;;;;;;9.75;7.75;;;;;19.98;36.20;101460.44;5038448;28;45341;-38
2023/04/19 05:02:05;;;;;;;;;9.50;7.75;;;;;19.98;36.62;101469.19;5038752;28;45244;-37
2023/04/19 05:04:30;;;;;;;;;12.00;10.25;;;;;19.98;36.86;101466.56;5038391;28;45492;-37
2023/04/19 05:06:56;;;;;;;;;9.75;9.25;;;;;19.97;36.64;101462.22;5038471;28;45375;-38
2023/04/19 05:09:21;;;;;;;;;11.00;10.00;;;;;19.96;36.28;101457.88;5037971;28;59480;-38
2023/04/19 05:11:46;;;;;;;;;10.00;9.75;;;;;19.97;36.90;101470.13;5038643;28;45368;-37
2023/04/19 05:14:12;;;;;;;;;9.00;9.00;;;;;19.96;36.29;101457.00;5038541;28;48240;-38
2023/04/19 05:16:37;;;;;;;;;9.75;8.50;;;;;19.97;36.42;101464.84;5038318;28;45323;-38
2023/04/19 05:19:02;;;;;;;;;9.33;9.33;;;;;19.94;36.95;101467.59;5037736;28;54938;-37
2023/04/19 05:21:27;;;;;;;;;8.25;7.75;;;;;19.96;36.49;101470.16;5038330;28;45356;-38
2023/04/19 05:23:53;;;;;;;;;9.00;9.00;;;;;19.95;37.04;101474.59;5036754;28;47893;-39
2023/04/19 05:26:18;;;;;;;;;8.75;8.25;;;;;19.95;36.42;101479.84;5038056;28;45320;-37
2023/04/19 05:28:44;;;;;;;;;10.00;10.00;;;;;19.94;36.62;101478.13;5038460;28;45399;-38
2023/04/19 05:31:11;;;;;;;;;9.25;9.00;;;;;19.95;36.69;101485.09;5038310;28;45664;-38
2023/04/19 05:33:36;;;;;;;;;11.75;11.00;;;;;19.96;36.79;101491.22;5031284;28;47021;-40
2023/04/19 05:36:02;;;;;;;;;10.75;9.75;;;;;19.93;36.91;101477.28;5018171;28;45273;-39
2023/04/19 05:38:27;;;;;;;;;7.00;7.00;;;;;19.94;36.26;101480.75;5018033;28;45460;-38
2023/04/19 05:40:53;;;;;;;;;14.75;10.00;;;;;19.93;36.85;101482.56;5017994;28;45549;-37
2023/04/19 05:43:18;;;;;;;;;9.50;9.25;;;;;19.94;36.46;101486.03;5016503;28;48345;-38
2023/04/19 05:45:43;;;;;;;;;9.00;8.00;;;;;19.93;36.37;101490.44;5017517;28;63243;-38
2023/04/19 05:48:09;;;;;;;;;10.00;9.50;;;;;19.93;36.57;101485.19;5018020;28;45293;-38
2023/04/19 05:50:37;;;;;;;;;10.25;8.25;;;;;19.93;36.36;101494.84;5018124;28;45571;-38
2023/04/19 05:53:03;;;;;;;;;9.00;7.75;;;;;19.92;36.71;101495.75;5017695;28;46115;-38
2023/04/19 05:55:28;;;;;;;;;10.00;10.00;;;;;19.92;36.99;101493.13;5017737;28;45395;-38
2023/04/19 05:57:53;;;;;;;;;10.25;8.75;;;;;19.93;36.78;101505.34;5017854;28;45488;-39
2023/04/19 06:00:19;;;;;;;;;8.50;8.25;;;;;19.92;36.79;101501.00;5017974;28;45327;-39
2023/04/19 06:02:45;;;;;;;;;9.00;9.00;;;;;19.92;36.87;101503.66;5017955;28;45391;-38
2023/04/19 06:05:10;;;;;;;;;7.75;7.75;;;;;19.91;36.60;101505.44;5016247;28;45292;-41
2023/04/19 06:07:35;;;;;;;;;8.00;8.00;;;;;19.92;36.38;101503.66;5017577;28;45325;-38
2023/04/19 06:10:01;;;;;;;;;10.25;9.50;;;;;19.93;36.30;101502.72;5016957;28;45344;-38
2023/04/19 06:12:26;;;;;;;;;9.25;8.50;;;;;19.92;36.92;101498.38;5015905;28;52531;-38
2023/04/19 06:14:52;;;;;;;;;8.00;7.00;;;;;19.89;36.39;101502.00;5017570;28;45416;-38
2023/04/19 06:17:23;;;;;;;;;10.75;9.00;;;;;19.93;36.56;101508.00;5017912;28;45484;-40
2023/04/19 06:19:50;;;;;;;;;9.25;7.75;;;;;19.93;36.99;101508.00;5017881;28;45350;-38
2023/04/19 06:22:15;;;;;;;;;12.00;9.75;;;;;19.93;36.58;101498.34;5017448;28;45438;-40
2023/04/19 06:24:40;;;;;;;;;10.00;8.75;;;;;19.93;36.36;101506.22;5017238;28;45399;-40
2023/04/19 06:27:06;;;;;;;;;9.25;9.25;;;;;19.94;36.78;101507.06;5017374;28;45504;-40
2023/04/19 06:29:31;;;;;;;;;7.75;7.25;;;;;19.94;36.79;101507.06;5017547;28;45411;-42
2023/04/19 06:31:56;;;;;;;;;8.33;8.00;;;;;19.93;36.85;101513.25;5016670;28;61013;-40
2023/04/19 06:34:22;;;;;;;;;11.00;10.00;;;;;19.95;36.73;101521.09;5016536;28;60922;-41
2023/04/19 06:36:47;;;;;;;;;10.25;9.25;;;;;19.94;37.00;101522.84;5017640;28;45332;-39
2023/04/19 06:39:13;;;;;;;;;11.00;9.00;;;;;19.93;37.04;101522.03;5016995;28;45626;-39
2023/04/19 06:41:39;;;;;;;;;12.00;10.25;;;;;19.94;36.72;101522.84;5017011;28;45423;-39
2023/04/19 06:44:04;;;;;;;;;9.75;9.50;;;;;19.91;36.45;101518.59;5015661;28;45353;-41
2023/04/19 06:46:30;;;;;;;;;9.75;7.75;;;;;19.92;36.63;101524.69;5017274;28;45281;-43
2023/04/19 06:48:55;;;;;;;;;9.75;9.25;;;;;19.91;36.61;101522.97;5017264;28;45318;-43
2023/04/19 06:51:20;;;;;;;;;8.50;8.50;;;;;19.91;36.79;101520.34;5015812;28;48182;-42
2023/04/19 06:53:46;;;;;;;;;11.50;9.50;;;;;19.91;36.81;101525.59;5016834;28;45333;-43
2023/04/19 06:56:12;;;;;;;;;10.00;8.50;;;;;19.88;37.07;101520.50;5015770;28;45403;-43
2023/04/19 06:58:37;;;;;;;;;11.00;9.00;;;;;19.86;37.18;101524.97;5017065;28;45152;-39
2023/04/19 07:01:03;;;;;;;;;14.00;12.50;;;;;19.86;36.92;101519.69;5015537;28;47593;-39
2023/04/19 07:03:29;;;;;;;;;9.50;8.25;;;;;19.87;36.74;101521.41;5028826;28;46622;-42
2023/04/19 07:05:57;;;;;;;;;10.00;7.00;;;;;19.87;37.02;101526.69;5026092;28;45289;-38
2023/04/19 07:08:23;;;;;;;;;10.00;9.00;;;;;19.88;37.20;101523.13;5018418;28;45379;-37
2023/04/19 07:10:49;;;;;;;;;11.50;8.50;;;;;19.89;37.22;101524.84;5036653;28;47301;-38
2023/04/19 07:13:14;;;;;;;;;9.00;9.00;;;;;19.91;36.99;101528.25;5036388;28;45335;-39
2023/04/19 07:15:39;;;;;;;;;5.50;4.25;;;;;19.91;36.92;101515.97;5036538;28;45362;-38
2023/04/19 07:18:05;;;;;;;;;11.75;10.00;;;;;19.92;37.31;101514.16;5036617;28;45350;-38
2023/04/19 07:20:30;;;;;;;;;10.25;8.25;;;;;19.93;37.33;101521.16;5036305;28;46243;-40
2023/04/19 07:22:59;;;;;;;;;10.00;8.75;;;;;19.92;37.25;101517.66;5034769;28;45448;-37
2023/04/19 07:25:24;;;;;;;;;8.25;6.25;;;;;19.93;36.94;101521.16;5036548;28;45395;-38
2023/04/19 07:27:52;;;;;;;;;11.50;9.00;;;;;19.96;37.26;101528.91;5036936;28;45438;-38
2023/04/19 07:30:17;;;;;;;;;10.00;10.00;;;;;19.95;36.89;101536.88;5035033;28;48167;-37
2023/04/19 07:32:43;;;;;;;;;10.00;9.25;;;;;19.93;37.18;101536.94;5036445;28;45363;-37
2023/04/19 07:35:08;;;;;;;;;11.75;10.25;;;;;19.93;37.04;101531.66;5035157;28;45412;-37
2023/04/19 07:37:33;;;;;;;;;10.50;9.00;;;;;19.93;36.86;101536.94;5036433;28;45523;-38
2023/04/19 07:39:59;;;;;;;;;8.33;8.00;;;;;19.93;37.47;101531.66;5035620;28;62901;-41
2023/04/19 07:42:24;;;;;;;;;8.00;7.75;;;;;19.93;37.38;101532.53;5036327;28;45363;-38
2023/04/19 07:44:50;;;;;;;;;10.25;9.00;;;;;19.94;36.96;101536.00;5018835;28;45329;-38
2023/04/19 07:47:16;;;;;;;;;12.50;11.00;;;;;19.96;37.09;101539.44;5036457;28;45427;-38
2023/04/19 07:49:43;;;;;;;;;12.25;9.00;;;;;19.97;37.07;101549.06;5035915;28;45472;-40
2023/04/19 07:52:08;;;;;;;;;13.25;11.00;;;;;19.96;36.92;101549.09;5035927;28;45406;-42
2023/04/19 07:54:38;;;;;;;;;11.00;9.00;;;;;19.91;36.85;101539.63;5034923;28;45422;-40
2023/04/19 07:57:03;;;;;;;;;9.50;8.25;;;;;19.93;36.99;101535.16;5036371;28;45542;-38
2023/04/19 07:59:29;;;;;;;;;12.75;10.75;;;;;19.95;37.35;101540.38;5034428;28;66430;-38
2023/04/19 08:01:54;;;;;;;;;11.25;10.25;;;;;19.96;37.26;101544.72;5036445;28;45225;-38
2023/04/19 08:04:21;;;;;;;;;15.00;11.00;;;;;19.96;36.59;101534.19;5036433;28;45696;-38
2023/04/19 08:06:47;;;;;;;;;15.00;11.00;;;;;19.95;37.12;101529.00;5035594;28;45652;-43
2023/04/19 08:09:12;;;;;;;;;9.75;8.00;;;;;19.95;37.27;101534.25;5035872;28;45984;-42
2023/04/19 08:11:38;;;;;;;;;9.25;8.50;;;;;19.96;36.94;101538.56;5035853;28;45358;-40
2023/04/19 08:14:03;;;;;;;;;9.00;9.00;;;;;19.96;36.54;101534.19;5034711;28;45484;-40
2023/04/19 08:16:29;;;;;;;;;12.75;10.00;;;;;19.95;36.69;101524.56;5036123;28;45406;-40
2023/04/19 08:18:54;;;;;;;;;9.50;8.75;;;;;19.98;37.21;101534.97;5034654;28;45962;-38
2023/04/19 08:21:20;;;;;;;;;9.00;9.00;;;;;20.00;37.15;101529.63;5034376;28;45442;-40
2023/04/19 08:23:46;;;;;;;;;10.00;8.00;;;;;19.99;36.62;101528.81;5034367;28;45399;-41
2023/04/19 08:26:11;;;;;;;;;12.25;9.75;;;;;20.01;37.02;101532.19;5036248;28;45465;-37
2023/04/19 08:28:37;;;;;;;;;7.75;7.75;;;;;20.02;37.18;101523.38;5035539;28;46778;-38
2023/04/19 08:31:06;;;;;;;;;9.00;9.00;;;;;20.01;37.05;101519.03;5035620;28;45245;-41
2023/04/19 08:33:31;;;;;;;;;12.00;9.00;;;;;20.04;37.09;101523.34;5037089;28;45353;-40
2023/04/19 08:35:57;;;;;;;;;9.50;9.50;;;;;20.05;36.66;101528.53;5039304;28;45515;-38
2023/04/19 08:38:22;;;;;;;;;9.75;9.00;;;;;20.05;36.80;101520.63;5039112;28;46258;-39
2023/04/19 08:40:52;;;;;;;;;10.00;9.50;;;;;20.06;36.62;101527.59;5039104;28;45355;-38
2023/04/19 08:43:18;;;;;;;;;10.00;8.25;;;;;20.06;36.78;101532.88;5039038;28;45473;-38
2023/04/19 08:45:46;;;;;;;;;11.50;11.00;;;;;20.07;36.97;101526.69;5039380;28;45393;-38
2023/04/19 08:48:14;;;;;;;;;12.00;10.75;;;;;20.07;37.11;101523.19;5038569;28;46359;-38
2023/04/19 08:50:41;;;;;;;;;10.50;8.50;;;;;20.06;36.47;101516.25;5037674;28;45455;-38
2023/04/19 08:53:09;;;;;;;;;11.75;8.75;;;;;20.07;36.97;101526.69;5038970;28;45276;-37
2023/04/19 08:55:37;;;;;;;;;10.00;8.50;;;;;20.08;36.84;101525.78;5039111;28;45533;-38
2023/04/19 08:58:03;;;;;;;;;8.50;6.75;;;;;20.09;36.77;101526.63;5038686;28;46526;-38
2023/04/19 09:00:29;;;;;;;;;12.50;10.25;;;;;20.08;37.13;101528.41;5038689;28;45894;-38
2023/04/19 09:02:54;;;;;;;;;10.00;8.00;;;;;20.10;36.70;101528.31;5038986;28;45340;-38
2023/04/19 09:05:20;;;;;;;;;10.00;10.00;;;;;20.11;36.88;101529.19;5038759;28;45640;-39
2023/04/19 09:07:45;;;;;;;;;12.00;11.00;;;;;20.11;36.88;101529.19;5038461;28;46934;-38
2023/04/19 09:10:16;;;;;;;;;8.25;8.00;;;;;20.10;37.24;101523.06;5038408;28;45479;-40
2023/04/19 09:12:41;;;;;;;;;10.75;10.25;;;;;20.10;37.09;101524.84;5038727;28;45222;-43
2023/04/19 09:15:08;;;;;;;;;10.50;8.00;;;;;20.10;37.02;101517.81;5038656;28;45430;-41
2023/04/19 09:17:35;;;;;;;;;11.00;10.25;;;;;20.08;37.11;101528.41;5038220;28;45753;-38
2023/04/19 09:20:01;;;;;;;;;11.00;10.00;;;;;20.11;36.51;101527.41;5038190;28;45359;-40
2023/04/19 09:22:26;;;;;;;;;8.75;6.50;;;;;20.12;37.01;101525.66;5038326;28;45449;-41
2023/04/19 09:24:52;;;;;;;;;10.00;8.50;;;;;20.12;37.15;101523.84;5038519;28;45593;-42
2023/04/19 09:27:29;;;;;;;;;13.00;9.50;;;;;20.13;36.60;101509.78;5036773;28;47664;-41
2023/04/19 09:29:56;;;;;;;;;7.75;7.50;;;;;20.13;36.71;101512.41;5038127;28;45309;-43
2023/04/19 09:32:22;;;;;;;;;12.50;10.75;;;;;20.15;36.75;101514.97;5038323;28;45229;-39
2023/04/19 09:34:56;;;;;;;;;13.75;10.25;;;;;20.15;36.55;101517.59;5036976;28;45445;-39
2023/04/19 09:37:22;;;;;;;;;11.25;10.75;;;;;20.13;36.62;101506.28;5038048;28;45676;-37
2023/04/19 09:39:48;;;;;;;;;13.00;10.50;;;;;20.14;36.57;101502.72;5037918;28;45797;-38
2023/04/19 09:42:13;;;;;;;;;8.00;8.00;;;;;20.15;37.07;101501.81;5038142;28;45329;-37
2023/04/19 09:44:39;;;;;;;;;9.75;9.75;;;;;20.14;37.08;101498.34;5036974;28;45571;-40
2023/04/19 09:47:24;;;;;;;;;10.75;8.50;;;;;20.15;37.01;101494.78;5037815;28;45425;-38
2023/04/19 09:50:10;;;;;;;;;9.00;8.25;;;;;20.17;36.79;101497.34;5037926;28;46073;-38
2023/04/19 09:52:35;;;;;;;;;10.25;9.00;;;;;20.16;36.60;101493.88;5036557;28;45418;-39
2023/04/19 09:55:03;;;;;;;;;8.50;8.00;;;;;20.17;36.51;101492.09;5038141;28;45328;-40
2023/04/19 09:57:30;;;;;;;;;9.75;8.00;;;;;20.18;36.80;101494.63;5038046;28;46401;-40
2023/04/19 09:59:55;;;;;;;;;8.00;7.25;;;;;20.18;36.73;101489.38;5037785;28;45803;-37
2023/04/19 10:02:23;;;;;;;;;12.00;9.50;;;;;20.18;36.50;101481.47;5037656;28;45277;-37
2023/04/19 10:04:48;;;;;;;;;7.50;7.50;;;;;20.20;36.73;101484.91;5037984;28;45361;-40
2023/04/19 10:07:14;;;;;;;;;9.50;9.50;;;;;20.21;37.25;101483.13;5037533;28;46458;-38
2023/04/19 10:09:40;;;;;;;;;8.50;8.50;;;;;20.19;36.52;101471.81;5037479;28;45385;-38
2023/04/19 10:12:06;;;;;;;;;9.25;8.00;;;;;20.20;37.05;101482.28;5037730;28;45426;-39
2023/04/19 10:14:35;;;;;;;;;8.75;7.00;;;;;20.21;36.91;101472.63;5038168;28;45404;-37
2023/04/19 10:17:01;;;;;;;;;10.25;9.25;;;;;20.21;36.98;101472.63;5037777;28;45603;-38
2023/04/19 10:19:27;;;;;;;;;8.00;8.00;;;;;20.21;36.57;101469.97;5036106;28;45769;-40
2023/04/19 10:21:55;;;;;;;;;9.50;8.75;;;;;20.22;36.91;101466.44;5037367;28;45411;-38
2023/04/19 10:24:22;;;;;;;;;9.00;7.75;;;;;20.23;37.10;101473.38;5037562;28;45276;-37
2023/04/19 10:27:06;;;;;;;;;10.25;10.25;;;;;20.23;37.11;101470.75;5037241;28;45997;-39
2023/04/19 10:29:50;;;;;;;;;11.25;9.00;;;;;20.24;36.61;101472.47;5037448;28;45326;-38
2023/04/19 10:32:16;;;;;;;;;10.25;7.75;;;;;20.24;36.59;101465.44;5037347;28;45309;-40
2023/04/19 10:34:42;;;;;;;;;10.75;8.00;;;;;20.26;36.78;101467.13;5037688;28;45490;-38
2023/04/19 10:37:12;;;;;;;;;8.25;8.25;;;;;20.24;36.87;101462.81;5035871;28;48245;-38
2023/04/19 10:39:42;;;;;;;;;7.00;7.00;;;;;20.26;36.44;101465.34;5035794;28;45768;-38
2023/04/19 10:42:07;;;;;;;;;9.50;7.50;;;;;20.23;36.90;101460.22;5037209;28;45390;-38
2023/04/19 10:44:33;;;;;;;;;8.00;8.00;;;;;20.26;37.02;101464.50;5037741;28;45556;-38
2023/04/19 10:46:58;;;;;;;;;10.25;7.25;;;;;20.27;36.96;101461.81;5035482;28;46069;-38
2023/04/19 10:49:26;;;;;;;;;10.00;9.50;;;;;20.26;36.85;101451.34;5036921;28;45293;-39
2023/04/19 10:51:53;;;;;;;;;10.00;10.00;;;;;20.26;36.68;101465.34;5037094;28;45182;-41
2023/04/19 10:54:37;;;;;;;;;10.25;9.75;;;;;20.26;36.65;101454.81;5035814;28;45711;-39
2023/04/19 10:57:05;;;;;;;;;10.25;10.00;;;;;20.26;37.22;101454.81;5037104;28;46434;-43
2023/04/19 10:59:31;;;;;;;;;10.00;9.25;;;;;20.27;37.13;101451.28;5036919;28;46048;-41
2023/04/19 11:01:59;;;;;;;;;9.00;9.00;;;;;20.26;37.29;101443.44;5036930;28;45431;-39
2023/04/19 11:04:30;;;;;;;;;8.25;8.00;;;;;20.28;37.14;101447.72;5037249;28;45658;-37
2023/04/19 11:07:04;;;;;;;;;10.50;9.50;;;;;20.28;36.73;101452.13;5036501;28;46366;-38
2023/04/19 11:09:38;;;;;;;;;7.75;7.75;;;;;20.29;37.15;101444.16;5036537;28;45916;-37
2023/04/19 11:12:09;;;;;;;;;7.25;5.75;;;;;20.28;37.15;101431.09;5036937;28;45381;-38
2023/04/19 11:14:43;;;;;;;;;10.75;7.75;;;;;20.28;36.79;101437.19;5037236;28;45523;-38